Time;durP1;ratioP1;P1;durP2;ratioP2;P2;SDS_P1;SDS_P2;PMS_P1;PMS_P2;Temp;Humidity;BMP_temperature;BMP_pressure;BME280_temperature;BME280_humidity;BME280_pressure;Samples;Min_cycle;Max_cycle;Signal;HPM_P1;HPM_P2
2022/06/13 00:01:27;;;;;;;;;;;22.90;99.90;;;;;;5112245;28;19908;-67
2022/06/13 00:03:53;;;;;;;;;;;23.00;99.90;;;;;;5110383;28;19976;-66
2022/06/13 00:06:19;;;;;;;;;;;23.00;99.90;;;;;;5108673;28;19994;-68
2022/06/13 00:08:44;;;;;;;;;;;22.90;99.90;;;;;;5108960;28;19908;-68
2022/06/13 00:11:13;;;;;;;;;;;22.80;99.90;;;;;;5107341;28;19956;-68
2022/06/13 00:13:41;;;;;;;;;;;22.70;99.90;;;;;;5095217;28;19911;-68
2022/06/13 00:16:07;;;;;;;;;;;22.70;99.90;;;;;;5101662;28;19918;-68
2022/06/13 00:18:33;;;;;;;;;;;22.70;99.90;;;;;;5107935;28;19907;-68
2022/06/13 00:20:59;;;;;;;;;;;22.70;99.90;;;;;;5110041;28;19911;-68
2022/06/13 00:23:24;;;;;;;;;;;22.70;99.90;;;;;;5111491;28;19908;-69
2022/06/13 00:25:50;;;;;;;;;;;22.70;99.90;;;;;;5108068;28;19943;-67
2022/06/13 00:28:15;;;;;;;;;;;22.70;99.90;;;;;;5109688;28;19908;-69
2022/06/13 00:30:41;;;;;;;;;;;22.70;99.90;;;;;;5111633;28;19907;-69
2022/06/13 00:33:07;;;;;;;;;;;22.70;99.90;;;;;;5109910;28;19911;-67
2022/06/13 00:35:32;;;;;;;;;;;22.70;99.90;;;;;;5113491;28;19915;-66
2022/06/13 00:37:58;;;;;;;;;;;22.70;99.90;;;;;;5107518;28;19916;-67
2022/06/13 00:40:24;;;;;;;;;;;22.60;99.90;;;;;;5100927;28;19915;-68
2022/06/13 00:42:50;;;;;;;;;;;22.60;99.90;;;;;;5103398;28;19954;-67
2022/06/13 00:45:18;;;;;;;;;;;22.60;99.90;;;;;;5108828;28;19922;-68
2022/06/13 00:47:45;;;;;;;;;;;22.60;99.90;;;;;;5104735;28;20391;-68
2022/06/13 00:50:14;;;;;;;;;;;22.60;99.90;;;;;;5112905;28;19904;-67
2022/06/13 00:52:46;;;;;;;;;;;22.60;99.90;;;;;;5110249;28;19926;-67
2022/06/13 00:55:12;;;;;;;;;;;22.50;99.90;;;;;;5109280;28;19916;-64
2022/06/13 00:57:38;;;;;;;;;;;22.40;99.90;;;;;;5103968;28;19911;-68
2022/06/13 01:00:06;;;;;;;;;;;22.30;99.90;;;;;;5110282;28;19914;-67
2022/06/13 01:02:32;;;;;;;;;;;22.20;99.90;;;;;;5110672;28;19908;-65
2022/06/13 01:04:59;;;;;;;;;;;22.20;99.90;;;;;;5105601;28;19922;-67
2022/06/13 01:07:27;;;;;;;;;;;22.20;99.90;;;;;;5109561;28;19947;-67
2022/06/13 01:12:37;;;;;;;;;;;22.20;99.90;;;;;;5109234;28;20372;-68
2022/06/13 01:15:12;;;;;;;;;;;22.20;99.90;;;;;;5091146;28;19912;-70
2022/06/13 01:17:56;;;;;;;;;;;22.10;99.90;;;;;;5101805;28;20312;-67
2022/06/13 01:20:22;;;;;;;;;;;22.10;99.90;;;;;;5106263;28;19915;-68
2022/06/13 01:23:06;;;;;;;;;;;22.10;99.90;;;;;;5105854;28;19908;-66
2022/06/13 01:25:47;;;;;;;;;;;22.10;99.90;;;;;;5105521;28;19931;-65
2022/06/13 01:28:25;;;;;;;;;;;22.20;99.90;;;;;;5100544;28;19916;-66
2022/06/13 01:31:09;;;;;;;;;;;22.10;99.90;;;;;;5107849;28;20369;-66
2022/06/13 01:33:40;;;;;;;;;;;22.10;99.90;;;;;;5104002;28;19911;-66
2022/06/13 01:36:08;;;;;;;;;;;22.00;99.90;;;;;;5107569;28;19994;-65
2022/06/13 01:38:49;;;;;;;;;;;22.10;99.90;;;;;;5106580;28;20323;-66
2022/06/13 01:41:30;;;;;;;;;;;22.10;99.90;;;;;;5110965;28;20313;-67
2022/06/13 01:44:11;;;;;;;;;;;22.10;99.90;;;;;;5105235;28;19915;-66
2022/06/13 01:46:43;;;;;;;;;;;22.00;99.90;;;;;;5103193;28;19951;-67
2022/06/13 01:49:23;;;;;;;;;;;22.00;99.90;;;;;;5101361;28;19915;-66
2022/06/13 01:51:58;;;;;;;;;;;21.90;99.90;;;;;;5104469;28;19912;-66
2022/06/13 01:54:28;;;;;;;;;;;21.90;99.90;;;;;;5102967;28;19907;-66
2022/06/13 01:57:01;;;;;;;;;;;21.90;99.90;;;;;;5097446;28;19949;-66
2022/06/13 01:59:46;;;;;;;;;;;21.90;99.90;;;;;;5100529;28;20293;-66
2022/06/13 02:02:17;;;;;;;;;;;21.90;99.90;;;;;;5106744;28;19908;-67
2022/06/13 02:04:59;;;;;;;;;;;21.90;99.90;;;;;;5109873;28;20258;-66
2022/06/13 02:07:27;;;;;;;;;;;22.00;99.90;;;;;;5109357;28;20002;-68
2022/06/13 02:10:00;;;;;;;;;;;22.00;99.90;;;;;;5101794;28;19922;-67
2022/06/13 02:12:27;;;;;;;;;;;21.80;99.90;;;;;;5101103;28;20329;-66
2022/06/13 02:14:57;;;;;;;;;;;21.80;99.90;;;;;;5106276;28;19919;-66
2022/06/13 02:17:27;;;;;;;;;;;21.80;99.90;;;;;;5102400;28;19915;-67
2022/06/13 02:19:56;;;;;;;;;;;21.80;99.90;;;;;;5102765;28;19916;-73
2022/06/13 02:22:33;;;;;;;;;;;21.80;99.90;;;;;;5098047;28;20018;-73
2022/06/13 02:25:04;;;;;;;;;;;21.70;99.90;;;;;;5100980;28;19968;-73
2022/06/13 02:27:32;;;;;;;;;;;21.50;99.90;;;;;;5099736;28;20491;-73
2022/06/13 02:30:00;;;;;;;;;;;21.40;99.90;;;;;;5104457;28;20011;-72
2022/06/13 02:32:35;;;;;;;;;;;21.30;99.90;;;;;;5107178;28;19907;-71
2022/06/13 02:35:08;;;;;;;;;;;21.30;99.90;;;;;;5108974;28;19907;-71
2022/06/13 02:37:37;;;;;;;;;;;21.30;99.90;;;;;;5110083;28;19961;-73
2022/06/13 02:40:02;;;;;;;;;;;21.20;99.90;;;;;;5104890;28;19907;-74
2022/06/13 02:42:31;;;;;;;;;;;21.20;99.90;;;;;;5105077;28;19914;-73
2022/06/13 02:44:57;;;;;;;;;;;21.20;99.90;;;;;;5106422;28;19965;-73
2022/06/13 02:47:37;;;;;;;;;;;21.20;99.90;;;;;;5104987;28;20285;-73
2022/06/13 02:50:10;;;;;;;;;;;21.20;99.90;;;;;;5103517;28;19915;-73
2022/06/13 02:52:59;;;;;;;;;;;21.20;99.90;;;;;;5102901;28;19908;-74
2022/06/13 02:55:24;;;;;;;;;;;21.30;99.90;;;;;;5104520;28;20361;-74
2022/06/13 02:58:01;;;;;;;;;;;21.20;99.90;;;;;;5099830;28;19927;-72
2022/06/13 03:00:26;;;;;;;;;;;21.20;99.90;;;;;;5102230;28;20373;-73
2022/06/13 03:03:04;;;;;;;;;;;21.10;99.90;;;;;;5107863;28;19922;-73
2022/06/13 03:05:33;;;;;;;;;;;21.10;99.90;;;;;;5105069;28;19915;-72
2022/06/13 03:08:13;;;;;;;;;;;21.10;99.90;;;;;;5101238;28;19916;-72
2022/06/13 03:11:01;;;;;;;;;;;21.20;99.90;;;;;;5106093;28;20357;-74
2022/06/13 03:13:47;;;;;;;;;;;21.20;99.90;;;;;;5069000;28;19958;-75
2022/06/13 03:16:32;;;;;;;;;;;21.20;99.90;;;;;;5088750;28;19912;-72
2022/06/13 03:19:06;;;;;;;;;;;21.10;99.90;;;;;;5106956;28;19994;-72
2022/06/13 03:21:38;;;;;;;;;;;21.00;99.90;;;;;;5105825;28;20053;-74
2022/06/13 03:24:27;;;;;;;;;;;21.00;99.90;;;;;;5109390;28;20289;-74
2022/06/13 03:26:55;;;;;;;;;;;21.00;99.90;;;;;;5093591;28;19939;-72
2022/06/13 03:29:31;;;;;;;;;;;21.00;99.90;;;;;;5110046;28;20010;-73
2022/06/13 03:31:58;;;;;;;;;;;21.00;99.90;;;;;;5110976;28;19912;-73
2022/06/13 03:34:28;;;;;;;;;;;21.10;99.90;;;;;;5112647;28;19994;-73
2022/06/13 03:37:00;;;;;;;;;;;21.10;99.90;;;;;;5112592;27;19937;-73
2022/06/13 03:39:39;;;;;;;;;;;21.10;99.90;;;;;;5111461;28;19958;-73
2022/06/13 03:42:09;;;;;;;;;;;21.10;99.90;;;;;;5109733;28;20280;-73
2022/06/13 03:44:39;;;;;;;;;;;21.20;99.90;;;;;;5111440;28;19907;-73
2022/06/13 03:47:09;;;;;;;;;;;21.20;99.90;;;;;;5111804;28;20378;-73
2022/06/13 03:49:50;;;;;;;;;;;21.10;99.90;;;;;;5107121;28;20338;-73
2022/06/13 03:52:17;;;;;;;;;;;21.10;99.90;;;;;;5106097;28;19953;-73
2022/06/13 03:54:58;;;;;;;;;;;21.00;99.90;;;;;;5109436;28;20011;-72
2022/06/13 03:57:27;;;;;;;;;;;21.00;99.90;;;;;;5106108;28;19908;-73
2022/06/13 04:00:13;;;;;;;;;;;20.90;99.90;;;;;;5102160;28;19908;-72
2022/06/13 04:02:40;;;;;;;;;;;21.00;99.90;;;;;;5105970;28;19914;-73
2022/06/13 04:05:06;;;;;;;;;;;21.20;99.90;;;;;;5112390;28;19991;-72
2022/06/13 04:07:33;;;;;;;;;;;21.20;99.90;;;;;;5111941;28;20023;-74
2022/06/13 04:10:00;;;;;;;;;;;21.20;99.90;;;;;;5109122;28;19914;-72
2022/06/13 04:12:52;;;;;;;;;;;21.20;99.90;;;;;;5106969;28;19931;-72
2022/06/13 04:15:21;;;;;;;;;;;21.20;99.90;;;;;;5081655;28;19947;-73
2022/06/13 04:17:49;;;;;;;;;;;21.20;99.90;;;;;;5107968;28;19912;-73
2022/06/13 04:20:34;;;;;;;;;;;21.20;99.90;;;;;;5110703;28;19907;-74
2022/06/13 04:23:09;;;;;;;;;;;21.20;99.90;;;;;;5106594;28;19960;-73
2022/06/13 04:25:38;;;;;;;;;;;21.40;99.90;;;;;;5107374;28;20317;-73
2022/06/13 04:28:08;;;;;;;;;;;21.50;99.90;;;;;;5108279;28;19957;-72
2022/06/13 04:30:35;;;;;;;;;;;21.50;99.90;;;;;;5100371;28;19977;-73
2022/06/13 04:33:15;;;;;;;;;;;21.60;99.90;;;;;;5108203;28;19912;-74
2022/06/13 04:35:41;;;;;;;;;;;21.60;99.90;;;;;;5110896;28;19907;-72
2022/06/13 04:38:09;;;;;;;;;;;21.60;99.90;;;;;;5110424;28;20495;-73
2022/06/13 04:40:37;;;;;;;;;;;21.70;99.90;;;;;;5096927;28;19956;-73
2022/06/13 04:43:05;;;;;;;;;;;21.70;99.90;;;;;;5110345;27;20365;-73
2022/06/13 04:45:52;;;;;;;;;;;21.80;99.90;;;;;;5105889;28;19943;-74
2022/06/13 04:48:34;;;;;;;;;;;21.90;99.90;;;;;;5110281;27;20265;-75
2022/06/13 04:51:02;;;;;;;;;;;22.00;99.90;;;;;;5112486;28;20418;-73
2022/06/13 04:53:34;;;;;;;;;;;22.00;99.90;;;;;;5109406;28;19912;-75
2022/06/13 04:56:00;;;;;;;;;;;22.00;99.90;;;;;;5102860;28;19940;-74
2022/06/13 04:58:27;;;;;;;;;;;22.10;99.90;;;;;;5104653;28;19907;-72
2022/06/13 05:01:04;;;;;;;;;;;22.20;99.90;;;;;;5107927;28;20365;-74
2022/06/13 05:03:31;;;;;;;;;;;22.20;99.90;;;;;;5106724;28;19911;-73
2022/06/13 05:05:59;;;;;;;;;;;22.30;99.90;;;;;;5106393;28;19915;-74
2022/06/13 05:08:30;;;;;;;;;;;22.30;99.90;;;;;;5106737;28;19914;-72
2022/06/13 05:11:01;;;;;;;;;;;22.40;99.90;;;;;;5110646;28;20000;-73
2022/06/13 05:13:27;;;;;;;;;;;22.50;99.90;;;;;;5103473;28;20400;-74
2022/06/13 05:16:00;;;;;;;;;;;22.60;99.90;;;;;;5110644;28;19919;-72
2022/06/13 05:18:26;;;;;;;;;;;22.70;99.90;;;;;;5109335;28;19908;-73
2022/06/13 05:21:04;;;;;;;;;;;22.70;99.90;;;;;;5107923;28;19985;-74
2022/06/13 05:23:35;;;;;;;;;;;22.80;99.90;;;;;;5105267;28;19918;-73
2022/06/13 05:26:01;;;;;;;;;;;22.90;99.90;;;;;;5108458;28;19903;-74
2022/06/13 05:28:30;;;;;;;;;;;22.90;99.90;;;;;;5107472;28;20338;-76
2022/06/13 05:30:57;;;;;;;;;;;23.00;99.90;;;;;;5107305;28;19951;-73
2022/06/13 05:33:28;;;;;;;;;;;23.20;99.90;;;;;;5106519;28;20419;-73
2022/06/13 05:35:56;;;;;;;;;;;23.40;99.90;;;;;;5108628;28;20011;-73
2022/06/13 05:38:30;;;;;;;;;;;23.50;99.90;;;;;;5111462;28;20006;-73
2022/06/13 05:40:56;;;;;;;;;;;23.70;99.90;;;;;;5099525;28;19907;-74
2022/06/13 05:43:22;;;;;;;;;;;23.80;99.90;;;;;;5109598;28;19949;-74
2022/06/13 05:45:50;;;;;;;;;;;24.00;99.90;;;;;;5103681;28;20263;-74
2022/06/13 05:48:29;;;;;;;;;;;24.20;99.90;;;;;;5093720;28;20034;-74
2022/06/13 05:51:01;;;;;;;;;;;24.40;99.90;;;;;;5077287;28;19916;-74
2022/06/13 05:53:27;;;;;;;;;;;24.50;99.90;;;;;;5104924;28;20253;-74
2022/06/13 05:55:55;;;;;;;;;;;24.70;99.90;;;;;;5105926;28;19919;-72
2022/06/13 05:58:21;;;;;;;;;;;24.70;99.90;;;;;;5106862;28;20618;-68
2022/06/13 06:00:48;;;;;;;;;;;24.70;99.90;;;;;;5099928;28;19915;-70
2022/06/13 06:03:17;;;;;;;;;;;24.60;99.90;;;;;;5105510;28;19908;-70
2022/06/13 06:05:43;;;;;;;;;;;24.70;99.90;;;;;;5109781;28;20007;-68
2022/06/13 06:08:19;;;;;;;;;;;24.70;99.90;;;;;;5110719;28;19939;-69
2022/06/13 06:10:46;;;;;;;;;;;24.70;99.90;;;;;;5106283;28;20335;-69
2022/06/13 06:13:12;;;;;;;;;;;24.90;99.90;;;;;;5106184;28;20015;-69
2022/06/13 06:15:42;;;;;;;;;;;25.10;99.90;;;;;;5106964;28;19955;-69
2022/06/13 06:18:07;;;;;;;;;;;25.30;99.90;;;;;;5103230;28;19926;-69
2022/06/13 06:20:33;;;;;;;;;;;25.50;99.90;;;;;;5099518;28;19907;-69
2022/06/13 06:22:58;;;;;;;;;;;25.60;99.90;;;;;;5110187;28;19930;-69
2022/06/13 06:25:24;;;;;;;;;;;25.80;99.90;;;;;;5107149;28;20052;-68
2022/06/13 06:27:50;;;;;;;;;;;25.90;99.90;;;;;;5103568;28;19958;-69
2022/06/13 06:30:17;;;;;;;;;;;26.00;99.90;;;;;;5101147;28;20523;-69
2022/06/13 06:32:43;;;;;;;;;;;26.10;99.90;;;;;;5106854;28;19907;-68
2022/06/13 06:35:09;;;;;;;;;;;26.20;99.90;;;;;;5100535;28;20373;-68
2022/06/13 06:37:37;;;;;;;;;;;26.20;99.90;;;;;;5106616;28;19914;-69
2022/06/13 06:40:03;;;;;;;;;;;26.10;99.90;;;;;;5107954;28;19911;-68
2022/06/13 06:42:28;;;;;;;;;;;26.00;99.90;;;;;;5102184;28;20590;-69
2022/06/13 06:44:54;;;;;;;;;;;25.80;99.90;;;;;;5111596;28;19956;-70
2022/06/13 06:47:20;;;;;;;;;;;25.90;99.90;;;;;;5107576;28;19961;-69
2022/06/13 06:49:47;;;;;;;;;;;26.00;99.90;;;;;;5105922;28;20079;-69
2022/06/13 06:52:12;;;;;;;;;;;26.10;99.90;;;;;;5110016;28;19903;-66
2022/06/13 07:00:07;;;;;;;;;;;25.50;99.90;;;;;;5107570;28;20338;-66
2022/06/13 07:02:32;;;;;;;;;;;25.50;99.90;;;;;;5108953;28;19998;-64
2022/06/13 07:05:05;;;;;;;;;;;25.60;99.90;;;;;;5103514;28;20376;-66
2022/06/13 07:07:31;;;;;;;;;;;25.80;99.90;;;;;;5107941;28;19908;-65
2022/06/13 07:09:56;;;;;;;;;;;26.00;99.90;;;;;;5108622;28;19956;-65
2022/06/13 07:12:22;;;;;;;;;;;26.30;99.90;;;;;;5097008;28;19912;-65
2022/06/13 07:14:52;;;;;;;;;;;26.70;99.90;;;;;;5105255;28;19926;-64
2022/06/13 07:17:20;;;;;;;;;;;27.00;99.90;;;;;;5102593;28;19954;-66
2022/06/13 07:19:46;;;;;;;;;;;27.10;99.90;;;;;;5099660;28;19912;-66
2022/06/13 07:22:13;;;;;;;;;;;26.90;99.90;;;;;;5095938;28;20430;-67
2022/06/13 07:24:39;;;;;;;;;;;26.80;99.90;;;;;;5105334;28;19907;-66
2022/06/13 07:27:04;;;;;;;;;;;26.80;99.90;;;;;;5108743;28;19960;-64
2022/06/13 07:29:30;;;;;;;;;;;26.90;99.90;;;;;;5100858;28;20381;-67
2022/06/13 07:32:00;;;;;;;;;;;27.00;99.90;;;;;;5099603;28;19977;-65
2022/06/13 07:34:28;;;;;;;;;;;27.20;99.90;;;;;;5104138;28;19966;-65
2022/06/13 07:36:55;;;;;;;;;;;27.30;99.90;;;;;;5105928;28;20537;-65
2022/06/13 07:39:20;;;;;;;;;;;27.40;99.90;;;;;;5106833;28;19911;-65
2022/06/13 07:41:46;;;;;;;;;;;27.20;99.90;;;;;;5108568;28;19904;-64
2022/06/13 07:44:17;;;;;;;;;;;27.20;99.90;;;;;;5100993;28;19908;-66
2022/06/13 07:46:43;;;;;;;;;;;27.00;99.90;;;;;;5106206;28;20321;-69
2022/06/13 07:49:08;;;;;;;;;;;26.70;99.90;;;;;;5109010;28;19904;-68
2022/06/13 07:51:35;;;;;;;;;;;26.50;99.90;;;;;;5106128;28;19908;-68
2022/06/13 07:54:00;;;;;;;;;;;26.30;99.90;;;;;;5108865;28;19914;-69
2022/06/13 07:56:28;;;;;;;;;;;26.10;99.90;;;;;;5108381;28;19916;-69
2022/06/13 07:58:54;;;;;;;;;;;26.10;99.90;;;;;;5109287;28;20344;-69
2022/06/13 08:01:20;;;;;;;;;;;26.10;99.90;;;;;;5108447;28;19912;-70
2022/06/13 08:03:46;;;;;;;;;;;26.10;99.90;;;;;;5109202;28;20266;-70
2022/06/13 08:06:11;;;;;;;;;;;26.20;99.90;;;;;;5107573;28;19907;-67
2022/06/13 08:08:40;;;;;;;;;;;26.10;99.90;;;;;;5108688;28;19911;-68
2022/06/13 08:11:07;;;;;;;;;;;25.90;99.90;;;;;;5110320;28;19903;-68
2022/06/13 08:13:33;;;;;;;;;;;25.80;99.90;;;;;;5108591;28;20404;-68
2022/06/13 08:15:58;;;;;;;;;;;25.70;99.90;;;;;;5110115;28;19961;-68
2022/06/13 08:18:24;;;;;;;;;;;25.30;99.90;;;;;;5105643;28;20281;-69
2022/06/13 08:20:50;;;;;;;;;;;25.20;99.90;;;;;;5111267;28;20006;-70
2022/06/13 08:23:16;;;;;;;;;;;25.00;99.90;;;;;;5106652;28;20422;-69
2022/06/13 08:25:43;;;;;;;;;;;25.00;99.90;;;;;;5109415;28;19904;-68
2022/06/13 08:28:09;;;;;;;;;;;25.00;99.90;;;;;;5113698;28;19904;-68
2022/06/13 08:30:45;;;;;;;;;;;24.90;99.90;;;;;;5112392;28;19904;-69
2022/06/13 08:33:11;;;;;;;;;;;24.90;99.90;;;;;;5112356;28;19918;-68
2022/06/13 08:35:37;;;;;;;;;;;24.70;99.90;;;;;;5112367;28;19908;-68
2022/06/13 08:38:03;;;;;;;;;;;24.60;99.90;;;;;;5108645;28;19979;-69
2022/06/13 08:40:34;;;;;;;;;;;24.50;99.90;;;;;;5112060;28;19904;-68
2022/06/13 08:43:15;;;;;;;;;;;24.40;99.90;;;;;;5111228;28;19912;-68
2022/06/13 08:45:50;;;;;;;;;;;24.40;99.90;;;;;;5108857;28;20352;-68
2022/06/13 08:48:31;;;;;;;;;;;24.30;99.90;;;;;;5111654;28;19904;-69
2022/06/13 08:51:07;;;;;;;;;;;24.40;99.90;;;;;;5109740;28;19956;-68
2022/06/13 08:53:43;;;;;;;;;;;24.60;99.90;;;;;;5109319;28;20060;-68
2022/06/13 08:56:11;;;;;;;;;;;24.80;99.90;;;;;;5105309;28;19977;-68
2022/06/13 08:58:42;;;;;;;;;;;24.80;99.90;;;;;;5111364;28;19911;-68
2022/06/13 09:01:10;;;;;;;;;;;24.90;99.90;;;;;;5111488;28;19904;-68
2022/06/13 09:03:43;;;;;;;;;;;24.90;99.90;;;;;;5111637;28;19923;-68
2022/06/13 09:06:17;;;;;;;;;;;24.70;99.90;;;;;;5111037;28;19914;-68
2022/06/13 09:08:51;;;;;;;;;;;24.80;99.90;;;;;;5110011;28;19912;-69
2022/06/13 09:11:17;;;;;;;;;;;24.90;99.90;;;;;;5111340;28;19904;-68
2022/06/13 09:13:43;;;;;;;;;;;25.00;99.90;;;;;;5111431;28;20379;-68
2022/06/13 09:16:17;;;;;;;;;;;25.10;99.90;;;;;;5109308;28;19911;-67
2022/06/13 09:18:55;;;;;;;;;;;25.30;99.90;;;;;;5107710;28;19950;-68
2022/06/13 09:21:24;;;;;;;;;;;25.50;99.90;;;;;;5109264;28;20010;-68
2022/06/13 09:23:55;;;;;;;;;;;25.50;99.90;;;;;;5106114;28;19998;-67
2022/06/13 09:26:33;;;;;;;;;;;25.70;99.90;;;;;;5111306;28;20266;-68
2022/06/13 09:29:12;;;;;;;;;;;25.70;99.90;;;;;;5111118;28;19907;-69
2022/06/13 09:31:40;;;;;;;;;;;25.70;99.90;;;;;;5109747;28;20254;-68
2022/06/13 09:34:06;;;;;;;;;;;25.90;99.90;;;;;;5111048;28;20097;-69
2022/06/13 09:36:36;;;;;;;;;;;25.90;99.90;;;;;;5100752;28;20511;-69
2022/06/13 09:39:07;;;;;;;;;;;25.90;99.90;;;;;;5101399;28;20050;-68
2022/06/13 09:41:35;;;;;;;;;;;26.00;99.90;;;;;;5099227;28;19912;-68
2022/06/13 09:44:04;;;;;;;;;;;26.30;99.90;;;;;;5101263;28;19915;-69
2022/06/13 09:46:35;;;;;;;;;;;26.60;99.90;;;;;;5092867;28;19912;-68
2022/06/13 09:49:01;;;;;;;;;;;27.00;99.90;;;;;;5095083;28;19908;-68
2022/06/13 09:51:45;;;;;;;;;;;27.30;99.90;;;;;;5095903;28;19912;-68
2022/06/13 09:54:23;;;;;;;;;;;27.50;99.90;;;;;;5096204;28;20775;-69
2022/06/13 09:57:07;;;;;;;;;;;27.50;99.90;;;;;;5097346;27;19927;-68
2022/06/13 09:59:39;;;;;;;;;;;27.80;99.90;;;;;;5096585;28;19965;-69
2022/06/13 10:02:11;;;;;;;;;;;28.00;99.90;;;;;;5107380;28;19910;-69
2022/06/13 10:04:45;;;;;;;;;;;28.00;99.90;;;;;;5094266;28;19907;-70
2022/06/13 10:07:25;;;;;;;;;;;28.10;99.90;;;;;;5099351;28;19907;-69
2022/06/13 10:10:07;;;;;;;;;;;27.50;99.90;;;;;;5094576;28;19915;-69
2022/06/13 10:12:45;;;;;;;;;;;26.70;99.90;;;;;;5096310;28;19912;-69
2022/06/13 10:15:30;;;;;;;;;;;26.30;99.90;;;;;;5097431;28;19911;-70
2022/06/13 10:18:08;;;;;;;;;;;26.30;99.90;;;;;;5097432;28;19915;-70
2022/06/13 10:20:33;;;;;;;;;;;26.50;99.90;;;;;;5103096;28;19971;-70
2022/06/13 10:23:02;;;;;;;;;;;26.90;99.90;;;;;;5119252;27;20481;-69
2022/06/13 10:25:46;;;;;;;;;;;27.10;99.90;;;;;;5101240;28;19935;-69
2022/06/13 10:28:33;;;;;;;;;;;27.30;99.90;;;;;;5093108;28;19908;-70
2022/06/13 10:31:17;;;;;;;;;;;27.40;99.90;;;;;;5105404;28;19907;-69
2022/06/13 10:33:43;;;;;;;;;;;27.40;99.90;;;;;;5096213;28;19912;-69
2022/06/13 10:36:15;;;;;;;;;;;27.20;99.90;;;;;;5097501;28;19933;-69
2022/06/13 10:38:48;;;;;;;;;;;27.20;99.90;;;;;;5097325;28;19912;-69
2022/06/13 10:41:13;;;;;;;;;;;27.20;99.90;;;;;;5103046;28;20029;-68
2022/06/13 10:43:42;;;;;;;;;;;27.40;99.90;;;;;;5095526;27;19915;-69
2022/06/13 10:46:10;;;;;;;;;;;27.50;99.90;;;;;;5097849;28;19912;-69
2022/06/13 10:48:36;;;;;;;;;;;27.60;99.90;;;;;;5109012;28;19907;-69
2022/06/13 10:51:02;;;;;;;;;;;27.70;99.90;;;;;;5108287;28;19922;-69
2022/06/13 10:53:41;;;;;;;;;;;27.70;99.90;;;;;;5109709;28;20021;-69
2022/06/13 10:56:09;;;;;;;;;;;27.70;99.90;;;;;;5101083;28;19911;-69
2022/06/13 10:58:41;;;;;;;;;;;27.80;99.90;;;;;;5109394;28;20418;-68
2022/06/13 11:01:11;;;;;;;;;;;27.70;99.90;;;;;;5103314;28;19915;-68
2022/06/13 11:03:40;;;;;;;;;;;27.90;99.90;;;;;;5094158;28;19911;-68
2022/06/13 11:06:07;;;;;;;;;;;28.00;99.90;;;;;;5106437;28;19975;-69
2022/06/13 11:08:33;;;;;;;;;;;27.90;99.90;;;;;;5107806;28;19953;-69
2022/06/13 11:11:03;;;;;;;;;;;27.90;99.90;;;;;;5108510;28;19925;-68
2022/06/13 11:13:32;;;;;;;;;;;27.80;99.90;;;;;;5102816;28;19921;-69
2022/06/13 11:24:31;;;;;;;;;;;27.90;99.90;;;;;;5101991;28;20045;-68
2022/06/13 11:29:41;;;;;;;;;;;27.90;99.90;;;;;;5108971;28;19911;-69
2022/06/13 11:32:18;;;;;;;;;;;27.90;99.90;;;;;;5108566;28;19908;-69
2022/06/13 11:34:44;;;;;;;;;;;28.00;99.90;;;;;;5109373;28;20366;-69
2022/06/13 11:37:18;;;;;;;;;;;28.20;99.90;;;;;;5109297;28;19923;-68
2022/06/13 11:39:46;;;;;;;;;;;28.40;99.90;;;;;;5109372;28;19918;-68
2022/06/13 11:42:15;;;;;;;;;;;28.60;99.90;;;;;;5106932;28;19904;-68
2022/06/13 11:44:41;;;;;;;;;;;28.60;99.90;;;;;;5110534;28;19911;-69
2022/06/13 11:47:07;;;;;;;;;;;28.50;99.90;;;;;;5110865;28;19904;-69
2022/06/13 11:49:38;;;;;;;;;;;28.40;99.90;;;;;;5118628;28;20293;-69
2022/06/13 11:52:10;;;;;;;;;;;28.40;99.90;;;;;;5117114;28;20181;-68
2022/06/13 11:54:35;;;;;;;;;;;28.50;99.90;;;;;;5114577;28;20387;-69
2022/06/13 11:57:19;;;;;;;;;;;28.60;99.90;;;;;;5114537;28;19915;-68
2022/06/13 12:00:21;;;;;;;;;;;28.50;99.90;;;;;;5114129;28;19907;-68
2022/06/13 12:02:49;;;;;;;;;;;28.60;99.90;;;;;;5041787;28;20026;-69
2022/06/13 12:05:19;;;;;;;;;;;28.60;99.90;;;;;;5102301;28;20270;-68
2022/06/13 12:07:52;;;;;;;;;;;28.40;99.90;;;;;;5111506;28;19903;-68
2022/06/13 12:10:20;;;;;;;;;;;28.50;99.90;;;;;;5110652;28;20334;-68
2022/06/13 12:12:45;;;;;;;;;;;28.50;99.90;;;;;;5100431;28;19908;-69
2022/06/13 12:15:13;;;;;;;;;;;28.50;99.90;;;;;;5104121;28;19918;-68
2022/06/13 12:17:45;;;;;;;;;;;28.50;99.90;;;;;;5109067;28;19911;-68
2022/06/13 12:20:15;;;;;;;;;;;28.60;99.90;;;;;;5112248;28;19930;-67
2022/06/13 12:22:47;;;;;;;;;;;28.50;99.90;;;;;;5108783;28;20280;-67
2022/06/13 12:25:15;;;;;;;;;;;28.50;99.90;;;;;;5112065;28;19922;-67
2022/06/13 12:27:41;;;;;;;;;;;28.60;99.90;;;;;;5110907;28;19930;-68
2022/06/13 12:30:22;;;;;;;;;;;28.70;99.90;;;;;;5112009;28;20389;-68
2022/06/13 12:33:03;;;;;;;;;;;28.70;99.90;;;;;;5111182;28;19911;-68
2022/06/13 12:35:28;;;;;;;;;;;28.90;99.90;;;;;;5108869;28;20002;-67
2022/06/13 12:37:55;;;;;;;;;;;29.10;99.90;;;;;;5108108;28;20327;-67
2022/06/13 12:40:20;;;;;;;;;;;29.10;99.90;;;;;;5112274;28;19956;-67
2022/06/13 12:42:46;;;;;;;;;;;28.80;99.90;;;;;;5109571;28;19912;-67
2022/06/13 12:45:31;;;;;;;;;;;28.70;99.90;;;;;;5104088;28;19904;-68
2022/06/13 12:47:56;;;;;;;;;;;28.60;99.90;;;;;;5098523;28;20280;-66
2022/06/13 12:50:31;;;;;;;;;;;28.50;99.90;;;;;;5113294;27;19911;-69
2022/06/13 12:53:07;;;;;;;;;;;28.40;99.90;;;;;;5117683;27;20314;-69
2022/06/13 12:56:00;;;;;;;;;;;28.40;99.90;;;;;;5112367;28;19970;-68
2022/06/13 12:58:39;;;;;;;;;;;28.50;99.90;;;;;;5096934;28;20422;-69
2022/06/13 13:01:14;;;;;;;;;;;28.50;99.90;;;;;;5090444;28;20321;-69
2022/06/13 13:03:46;;;;;;;;;;;28.50;99.90;;;;;;5111985;28;19943;-69
2022/06/13 13:06:11;;;;;;;;;;;28.60;99.90;;;;;;5112079;28;19910;-68
2022/06/13 13:08:56;;;;;;;;;;;28.60;99.90;;;;;;5112056;28;19903;-68
2022/06/13 13:11:28;;;;;;;;;;;28.60;99.90;;;;;;5111582;28;19999;-67
2022/06/13 13:13:57;;;;;;;;;;;28.60;99.90;;;;;;5112192;28;19914;-68
2022/06/13 13:16:22;;;;;;;;;;;28.60;99.90;;;;;;5103072;28;19976;-68
2022/06/13 13:18:59;;;;;;;;;;;28.70;99.90;;;;;;5106844;28;20231;-68
2022/06/13 13:21:49;;;;;;;;;;;28.80;99.90;;;;;;5111760;28;19921;-69
2022/06/13 13:24:33;;;;;;;;;;;28.80;99.90;;;;;;5113034;28;20017;-69
2022/06/13 13:27:07;;;;;;;;;;;28.90;99.90;;;;;;5107686;28;19908;-68
2022/06/13 13:29:32;;;;;;;;;;;29.00;99.90;;;;;;5111500;28;19999;-70
2022/06/13 13:32:08;;;;;;;;;;;29.20;99.90;;;;;;5111385;28;19943;-69
2022/06/13 13:34:59;;;;;;;;;;;29.30;99.90;;;;;;5111667;28;20378;-68
2022/06/13 13:37:36;;;;;;;;;;;29.50;99.90;;;;;;5104443;28;19941;-70
2022/06/13 13:40:22;;;;;;;;;;;29.60;99.90;;;;;;5112496;27;19908;-69
2022/06/13 13:43:20;;;;;;;;;;;29.50;99.90;;;;;;5117335;27;19911;-69
2022/06/13 13:46:00;;;;;;;;;;;29.60;99.90;;;;;;5135825;27;19933;-70
2022/06/13 13:48:45;;;;;;;;;;;29.60;99.90;;;;;;5120295;27;19964;-71
2022/06/13 13:51:27;;;;;;;;;;;29.60;99.90;;;;;;5109520;28;19985;-68
2022/06/13 13:53:55;;;;;;;;;;;29.50;99.90;;;;;;5102839;28;19933;-68
2022/06/13 13:56:33;;;;;;;;;;;29.40;99.90;;;;;;5094401;28;19920;-70
2022/06/13 13:58:59;;;;;;;;;;;29.40;99.90;;;;;;5096934;28;19908;-70
2022/06/13 14:01:24;;;;;;;;;;;29.50;99.90;;;;;;5109114;28;19914;-69
2022/06/13 14:04:11;;;;;;;;;;;29.50;99.90;;;;;;5108712;28;19951;-70
2022/06/13 14:06:43;;;;;;;;;;;29.50;99.90;;;;;;5103898;28;20012;-69
2022/06/13 14:09:09;;;;;;;;;;;29.50;99.90;;;;;;5106398;28;20323;-70
2022/06/13 14:11:54;;;;;;;;;;;29.50;99.90;;;;;;5107651;28;19907;-70
2022/06/13 14:14:19;;;;;;;;;;;29.60;99.90;;;;;;5108123;28;20272;-69
2022/06/13 14:16:48;;;;;;;;;;;29.80;99.90;;;;;;5107321;28;19915;-70
2022/06/13 14:19:20;;;;;;;;;;;29.90;99.90;;;;;;5108661;28;19914;-69
2022/06/13 14:21:46;;;;;;;;;;;29.80;99.90;;;;;;5108918;28;20281;-72
2022/06/13 14:24:13;;;;;;;;;;;29.80;99.90;;;;;;5107783;28;19914;-71
2022/06/13 14:26:42;;;;;;;;;;;29.70;99.90;;;;;;5101270;28;20319;-71
2022/06/13 14:29:15;;;;;;;;;;;29.50;99.90;;;;;;5107727;28;19908;-71
2022/06/13 14:31:56;;;;;;;;;;;29.40;99.90;;;;;;5104176;28;19907;-69
2022/06/13 14:37:25;;;;;;;;;;;29.30;99.90;;;;;;5110316;28;19981;-71
2022/06/13 14:39:58;;;;;;;;;;;29.40;99.90;;;;;;5092042;28;19919;-71
2022/06/13 14:42:30;;;;;;;;;;;29.40;99.90;;;;;;5104446;28;19930;-70
2022/06/13 14:45:04;;;;;;;;;;;29.40;99.90;;;;;;5109546;28;19940;-69
2022/06/13 14:47:35;;;;;;;;;;;29.50;99.90;;;;;;5110119;28;19919;-71
2022/06/13 14:50:01;;;;;;;;;;;29.50;99.90;;;;;;5110782;28;19973;-71
2022/06/13 14:52:35;;;;;;;;;;;29.60;99.90;;;;;;5097453;28;19916;-66
2022/06/13 14:55:05;;;;;;;;;;;29.90;99.90;;;;;;5108518;28;19957;-67
2022/06/13 14:57:37;;;;;;;;;;;29.80;99.90;;;;;;5105812;28;19919;-68
2022/06/13 15:00:03;;;;;;;;;;;29.90;99.90;;;;;;5108060;28;19939;-68
2022/06/13 15:02:30;;;;;;;;;;;29.90;99.90;;;;;;5104935;28;19958;-68